| time (UTC) | temp F | wind direction | speed MPH | gust MPH | rain 1hr in | rain 24hr in | rain mn in | humidity % | barometer mb |
| 20260904054503 | 77 | 357 | 5.0 | 8.0 | 0.00 | 0.00 | 0.00 | 85 | 1013.3 |
| 20260904054004 | 76 | 360 | 5.0 | 8.0 | 0.00 | 0.00 | 0.00 | 85 | 1013.3 |
| 20260904053505 | 76 | 359 | 4.0 | 8.0 | 0.00 | 0.00 | 0.00 | 85 | 1013.3 |
| 20260904053004 | 76 | 356 | 3.0 | 5.0 | 0.00 | 0.00 | 0.00 | 85 | 1013.3 |
| 20260904052504 | 75 | 356 | 2.0 | 5.0 | 0.00 | 0.00 | 0.00 | 85 | 1013.3 |
| 20260904052215 | 75 | 356 | 3.0 | 5.0 | 0.00 | 0.00 | 0.00 | 85 | 1013.3 |
| 20260904051503 | 75 | 338 | 3.0 | 6.0 | 0.00 | 0.00 | 0.00 | 85 | 1013.3 |
| 20260904051004 | 75 | 335 | 4.0 | 6.0 | 0.00 | 0.00 | 0.00 | 86 | 1013.3 |
| 20260904050503 | 75 | 338 | 6.0 | 8.0 | 0.00 | 0.00 | 0.00 | 86 | 1013.3 |
| 20260904050004 | 75 | 324 | 8.0 | 15.0 | 0.00 | 0.00 | 0.00 | 86 | 1013.3 |
| 20260904045503 | 74 | 325 | 11.0 | 15.0 | 0.00 | 0.00 | 0.00 | 86 | 1013.3 |
| 20260904045004 | 74 | 331 | 9.0 | 12.0 | 0.00 | 0.00 | 0.00 | 86 | 1013.3 |
| 20260904044503 | 74 | 336 | 6.0 | 12.0 | 0.00 | 0.00 | 0.00 | 85 | 1013.3 |
| 20260904044003 | 74 | 339 | 5.0 | 6.0 | 0.00 | 0.00 | 0.00 | 85 | 1013.3 |
| 20260904043503 | 74 | 326 | 5.0 | 6.0 | 0.00 | 0.00 | 0.00 | 84 | 1013.3 |
| 20260904043003 | 74 | 327 | 4.0 | 5.0 | 0.00 | 0.00 | 0.00 | 84 | 1013.3 |
| 20260904042504 | 74 | 331 | 4.0 | 5.0 | 0.00 | 0.00 | 0.00 | 84 | 1013.3 |
| 20260904042003 | 73 | 327 | 3.0 | 5.0 | 0.00 | 0.00 | 0.00 | 83 | 1013.3 |
| 20260904041503 | 73 | 321 | 4.0 | 6.0 | 0.00 | 0.00 | 0.00 | 83 | 1013.3 |
| 20260904041216 | 73 | 317 | 4.0 | 6.0 | 0.00 | 0.00 | 0.00 | 83 | 1013.3 |
| 20260904040504 | 73 | 316 | 4.0 | 6.0 | 0.00 | 0.00 | 0.00 | 84 | 1013.3 |
| 20260904040003 | 73 | 314 | 4.0 | 5.0 | 0.00 | 0.00 | 0.00 | 84 | 1013.3 |
| 20260904035503 | 73 | 298 | 4.0 | 5.0 | 0.00 | 0.00 | 0.00 | 84 | 1013.3 |
| 20260904035004 | 73 | 307 | 4.0 | 5.0 | 0.00 | 0.00 | 0.00 | 83 | 1012.3 |
| 20260904034503 | 73 | 322 | 4.0 | 5.0 | 0.00 | 0.00 | 0.00 | 83 | 1012.3 |
| 20260904034003 | 73 | 315 | 3.0 | 4.0 | 0.00 | 0.00 | 0.00 | 83 | 1012.3 |
| 20260904033503 | 73 | 319 | 3.0 | 4.0 | 0.00 | 0.00 | 0.00 | 83 | 1013.3 |
| 20260904033003 | 73 | 318 | 4.0 | 5.0 | 0.00 | 0.00 | 0.00 | 83 | 1013.3 |
| 20260904032505 | 73 | 331 | 4.0 | 5.0 | 0.00 | 0.00 | 0.00 | 83 | 1013.3 |
| 20260904032216 | 73 | 344 | 4.0 | 5.0 | 0.00 | 0.00 | 0.00 | 83 | 1013.3 |
| 20260904031503 | 73 | 356 | 4.0 | 5.0 | 0.00 | 0.00 | 0.00 | 81 | 1013.3 |
| 20260904031217 | 73 | 354 | 3.0 | 5.0 | 0.00 | 0.00 | 0.00 | 81 | 1013.3 |
| 20260904030715 | 74 | 328 | 3.0 | 5.0 | 0.00 | 0.00 | 0.00 | 80 | 1013.3 |
| 20260904030003 | 74 | 320 | 4.0 | 5.0 | 0.00 | 0.00 | 0.00 | 80 | 1013.3 |
| 20260904025716 | 74 | 321 | 4.0 | 5.0 | 0.00 | 0.00 | 0.00 | 80 | 1013.3 |
| 20260904025004 | 74 | 298 | 4.0 | 5.0 | 0.00 | 0.00 | 0.00 | 80 | 1013.3 |
| 20260904024504 | 74 | 272 | 3.0 | 4.0 | 0.00 | 0.00 | 0.00 | 80 | 1013.3 |
| 20260904024004 | 74 | 270 | 2.0 | 5.0 | 0.00 | 0.00 | 0.00 | 79 | 1013.3 |
| 20260904023504 | 74 | 288 | 3.0 | 5.0 | 0.00 | 0.00 | 0.00 | 79 | 1013.3 |
| 20260904023004 | 74 | 298 | 4.0 | 5.0 | 0.00 | 0.00 | 0.00 | 79 | 1013.3 |
| 20260904022714 | 74 | 313 | 4.0 | 5.0 | 0.00 | 0.00 | 0.00 | 79 | 1013.3 |
| 20260904022217 | 74 | 328 | 3.0 | 5.0 | 0.00 | 0.00 | 0.00 | 79 | 1013.3 |
| 20260904021504 | 74 | 360 | 3.0 | 5.0 | 0.00 | 0.00 | 0.00 | 79 | 1013.3 |
| 20260904021004 | 75 | 344 | 3.0 | 5.0 | 0.00 | 0.00 | 0.00 | 78 | 1013.3 |
| 20260904020504 | 75 | 328 | 3.0 | 5.0 | 0.00 | 0.00 | 0.00 | 78 | 1013.3 |
| 20260904020004 | 75 | 326 | 4.0 | 8.0 | 0.00 | 0.00 | 0.00 | 78 | 1013.3 |
| 20260904015504 | 75 | 321 | 5.0 | 8.0 | 0.00 | 0.00 | 0.00 | 77 | 1013.3 |
| 20260904015004 | 75 | 316 | 5.0 | 7.0 | 0.00 | 0.00 | 0.00 | 77 | 1013.3 |
| 20260904014504 | 75 | 310 | 4.0 | 5.0 | 0.00 | 0.00 | 0.00 | 77 | 1013.3 |
| 20260904014215 | 75 | 301 | 4.0 | 5.0 | 0.00 | 0.00 | 0.00 | 77 | 1013.3 |
| 20260904013504 | 75 | 294 | 3.0 | 5.0 | 0.00 | 0.00 | 0.00 | 77 | 1013.3 |
| 20260904013005 | 75 | 288 | 2.0 | 4.0 | 0.00 | 0.00 | 0.00 | 77 | 1013.3 |
| 20260904012504 | 75 | 192 | 0.0 | 2.0 | 0.00 | 0.00 | 0.00 | 77 | 1013.3 |
| 20260904012217 | 75 | 193 | 0.0 | 2.0 | 0.00 | 0.00 | 0.00 | 76 | 1013.3 |
| 20260904011504 | 76 | 313 | 3.0 | 5.0 | 0.00 | 0.00 | 0.00 | 76 | 1013.3 |
| 20260904011213 | 76 | 312 | 4.0 | 5.0 | 0.00 | 0.00 | 0.00 | 76 | 1013.3 |
| 20260904010504 | 76 | 311 | 5.0 | 8.0 | 0.00 | 0.00 | 0.00 | 77 | 1013.3 |
| 20260904010004 | 76 | 313 | 8.0 | 10.0 | 0.00 | 0.00 | 0.00 | 77 | 1013.3 |
| 20260904005504 | 76 | 319 | 8.0 | 11.0 | 0.00 | 0.00 | 0.00 | 77 | 1013.3 |
| 20260904005005 | 76 | 323 | 7.0 | 11.0 | 0.00 | 0.00 | 0.00 | 77 | 1013.3 |
| 20260904004504 | 76 | 335 | 5.0 | 11.0 | 0.00 | 0.00 | 0.00 | 76 | 1013.3 |
| 20260904004004 | 77 | 333 | 4.0 | 5.0 | 0.00 | 0.00 | 0.00 | 76 | 1013.3 |
| 20260904003504 | 77 | 307 | 5.0 | 6.0 | 0.00 | 0.00 | 0.00 | 75 | 1013.3 |
| 20260904003004 | 77 | 279 | 5.0 | 7.0 | 0.00 | 0.00 | 0.00 | 75 | 1013.3 |
| 20260904002504 | 77 | 232 | 4.0 | 7.0 | 0.00 | 0.00 | 0.00 | 75 | 1013.3 |
| 20260904002003 | 77 | 187 | 3.0 | 5.0 | 0.00 | 0.00 | 0.00 | 75 | 1013.3 |
| 20260904001504 | 78 | 298 | 2.0 | 5.0 | 0.00 | 0.00 | 0.00 | 75 | 1013.3 |
| 20260904001214 | 78 | 312 | 2.0 | 5.0 | 0.00 | 0.00 | 0.00 | 75 | 1013.3 |
| 20260904000503 | 78 | 338 | 2.0 | 5.0 | 0.00 | 0.00 | 0.00 | 75 | 1013.3 |
| 20260904000004 | 78 | 6 | 3.0 | 4.0 | 0.00 | 0.00 | 0.00 | 75 | 1013.3 |
| 20260903235713 | 78 | 342 | 3.0 | 5.0 | 0.00 | 0.00 | 0.00 | 75 | 1013.3 |
| 20260903235003 | 78 | 325 | 4.0 | 6.0 | 0.00 | 0.00 | 0.00 | 75 | 1013.3 |
| 20260903234714 | 78 | 323 | 4.0 | 6.0 | 0.00 | 0.00 | 0.00 | 75 | 1013.3 |
| 20260903234003 | 78 | 321 | 5.0 | 8.0 | 0.00 | 0.00 | 0.00 | 75 | 1013.3 |
| 20260903233503 | 79 | 325 | 6.0 | 8.0 | 0.00 | 0.00 | 0.00 | 75 | 1013.3 |
| 20260903233003 | 78 | 323 | 7.0 | 8.0 | 0.00 | 0.00 | 0.00 | 74 | 1013.3 |
| 20260903232716 | 78 | 319 | 7.0 | 8.0 | 0.00 | 0.00 | 0.00 | 74 | 1013.3 |
| 20260903232004 | 78 | 303 | 7.0 | 8.0 | 0.00 | 0.00 | 0.00 | 74 | 1014.3 |
| 20260903231504 | 78 | 279 | 6.0 | 8.0 | 0.00 | 0.00 | 0.00 | 74 | 1014.3 |
| 20260903231004 | 78 | 267 | 5.0 | 8.0 | 0.00 | 0.00 | 0.00 | 74 | 1014.3 |
| 20260903230503 | 78 | 226 | 5.0 | 7.0 | 0.00 | 0.00 | 0.00 | 73 | 1013.3 |
| 20260903230003 | 79 | 180 | 4.0 | 5.0 | 0.00 | 0.00 | 0.00 | 73 | 1013.3 |
| 20260903225503 | 79 | 180 | 2.0 | 5.0 | 0.00 | 0.00 | 0.00 | 73 | 1013.3 |
| 20260903225003 | 79 | 360 | 1.0 | 3.0 | 0.00 | 0.00 | 0.00 | 73 | 1013.3 |
| 20260903224503 | 79 | 2 | 1.0 | 6.0 | 0.00 | 0.00 | 0.00 | 74 | 1013.3 |
| 20260903224217 | 79 | 353 | 2.0 | 6.0 | 0.00 | 0.00 | 0.00 | 74 | 1013.3 |
| 20260903223503 | 80 | 10 | 5.0 | 8.0 | 0.00 | 0.00 | 0.00 | 74 | 1013.3 |
| 20260903223003 | 80 | 10 | 5.0 | 8.0 | 0.00 | 0.00 | 0.00 | 74 | 1013.3 |
| 20260903222503 | 80 | 357 | 4.0 | 8.0 | 0.00 | 0.00 | 0.00 | 73 | 1013.3 |
| 20260903222003 | 80 | 5 | 5.0 | 9.0 | 0.00 | 0.00 | 0.00 | 73 | 1013.3 |
| 20260903221717 | 80 | 3 | 5.0 | 9.0 | 0.00 | 0.00 | 0.00 | 73 | 1013.3 |
| 20260903221003 | 81 | 15 | 4.0 | 6.0 | 0.00 | 0.00 | 0.00 | 72 | 1013.3 |
| 20260903220505 | 81 | 17 | 2.0 | 5.0 | 0.00 | 0.00 | 0.00 | 71 | 1013.3 |
| 20260903220005 | 81 | 5 | 3.0 | 7.0 | 0.00 | 0.00 | 0.00 | 71 | 1013.3 |
| 20260903215503 | 81 | 12 | 4.0 | 7.0 | 0.00 | 0.00 | 0.00 | 71 | 1013.3 |
| 20260903215217 | 81 | 28 | 3.0 | 7.0 | 0.00 | 0.00 | 0.00 | 71 | 1013.3 |
| 20260903214503 | 81 | 34 | 5.0 | 8.0 | 0.00 | 0.00 | 0.00 | 70 | 1013.3 |
| 20260903214004 | 81 | 39 | 4.0 | 7.0 | 0.00 | 0.00 | 0.00 | 70 | 1013.3 |
| 20260903213504 | 81 | 39 | 2.0 | 7.0 | 0.00 | 0.00 | 0.00 | 69 | 1013.3 |
| 20260903213004 | 81 | 38 | 2.0 | 4.0 | 0.00 | 0.00 | 0.00 | 67 | 1013.3 |
| 20260903212717 | 81 | 30 | 1.0 | 4.0 | 0.00 | 0.00 | 0.00 | 67 | 1013.3 |
| 20260903212004 | 80 | 0 | 0.0 | 0.0 | 0.00 | 0.00 | 0.00 | 67 | 1013.3 |
| 20260903211504 | 81 | 180 | 0.0 | 1.0 | 0.00 | 0.00 | 0.00 | 66 | 1013.3 |
| 20260903211004 | 81 | 180 | 0.0 | 1.0 | 0.00 | 0.00 | 0.00 | 66 | 1013.3 |
| 20260903210504 | 80 | 159 | 1.0 | 2.0 | 0.00 | 0.00 | 0.00 | 67 | 1013.3 |
| 20260903210004 | 80 | 186 | 2.0 | 4.0 | 0.00 | 0.00 | 0.00 | 67 | 1013.3 |
| 20260903205715 | 80 | 185 | 3.0 | 4.0 | 0.00 | 0.00 | 0.00 | 67 | 1013.3 |
| 20260903205218 | 80 | 175 | 2.0 | 4.0 | 0.00 | 0.00 | 0.00 | 67 | 1013.3 |
| 20260903204504 | 81 | 64 | 2.0 | 6.0 | 0.00 | 0.00 | 0.00 | 66 | 1013.3 |
| 20260903204214 | 81 | 36 | 4.0 | 8.0 | 0.00 | 0.00 | 0.00 | 66 | 1013.3 |
| 20260903203717 | 81 | 2 | 7.0 | 14.0 | 0.00 | 0.00 | 0.00 | 66 | 1013.3 |
| 20260903203004 | 81 | 4 | 9.0 | 14.0 | 0.00 | 0.00 | 0.00 | 67 | 1013.3 |
| 20260903202504 | 81 | 6 | 8.0 | 10.0 | 0.00 | 0.00 | 0.00 | 67 | 1013.3 |
| 20260903202004 | 81 | 360 | 7.0 | 10.0 | 0.00 | 0.00 | 0.00 | 67 | 1013.3 |
| 20260903201504 | 81 | 356 | 8.0 | 13.0 | 0.00 | 0.00 | 0.00 | 67 | 1013.3 |
| 20260903201004 | 81 | 355 | 9.0 | 13.0 | 0.00 | 0.00 | 0.00 | 66 | 1013.3 |
| 20260903200714 | 81 | 355 | 9.0 | 12.0 | 0.00 | 0.00 | 0.00 | 66 | 1013.3 |
| 20260903200004 | 81 | 356 | 8.0 | 13.0 | 0.00 | 0.00 | 0.00 | 66 | 1013.3 |
| 20260903195504 | 81 | 360 | 8.0 | 13.0 | 0.00 | 0.00 | 0.00 | 65 | 1013.3 |
| 20260903195004 | 81 | 350 | 7.0 | 13.0 | 0.00 | 0.00 | 0.00 | 65 | 1013.3 |
| 20260903194716 | 81 | 343 | 6.0 | 10.0 | 0.00 | 0.00 | 0.00 | 65 | 1013.3 |
| 20260903194214 | 82 | 338 | 6.0 | 10.0 | 0.00 | 0.00 | 0.00 | 64 | 1013.3 |
| 20260903193504 | 82 | 352 | 5.0 | 8.0 | 0.00 | 0.00 | 0.00 | 65 | 1013.3 |
| 20260903193004 | 82 | 328 | 7.0 | 13.0 | 0.00 | 0.00 | 0.00 | 65 | 1013.3 |
| 20260903192713 | 82 | 322 | 7.0 | 13.0 | 0.00 | 0.00 | 0.00 | 65 | 1013.3 |
| 20260903192004 | 82 | 329 | 6.0 | 10.0 | 0.00 | 0.00 | 0.00 | 65 | 1012.3 |
| 20260903191504 | 82 | 333 | 7.0 | 12.0 | 0.00 | 0.00 | 0.00 | 66 | 1012.3 |
| 20260903191004 | 82 | 325 | 8.0 | 12.0 | 0.00 | 0.00 | 0.00 | 66 | 1012.3 |
| 20260903190715 | 82 | 324 | 8.0 | 11.0 | 0.00 | 0.00 | 0.00 | 66 | 1012.3 |
| 20260903190004 | 82 | 338 | 8.0 | 12.0 | 0.00 | 0.00 | 0.00 | 67 | 1012.3 |
| 20260903185504 | 82 | 340 | 8.0 | 12.0 | 0.00 | 0.00 | 0.00 | 67 | 1012.3 |
| 20260903185219 | 82 | 331 | 7.0 | 10.0 | 0.00 | 0.00 | 0.00 | 67 | 1012.3 |
| 20260903184504 | 83 | 332 | 6.0 | 11.0 | 0.00 | 0.00 | 0.00 | 66 | 1012.3 |
| 20260903184004 | 83 | 332 | 7.0 | 11.0 | 0.00 | 0.00 | 0.00 | 66 | 1012.3 |
| 20260903183503 | 83 | 343 | 6.0 | 11.0 | 0.00 | 0.00 | 0.00 | 66 | 1012.3 |
| 20260903183004 | 83 | 351 | 8.0 | 12.0 | 0.00 | 0.00 | 0.00 | 66 | 1012.3 |
| 20260903182714 | 83 | 352 | 7.0 | 12.0 | 0.00 | 0.00 | 0.00 | 65 | 1012.3 |
| 20260903182003 | 83 | 334 | 7.0 | 12.0 | 0.00 | 0.00 | 0.00 | 65 | 1012.3 |
| 20260903181503 | 83 | 329 | 9.0 | 13.0 | 0.00 | 0.00 | 0.00 | 65 | 1012.3 |
| 20260903181003 | 84 | 335 | 8.0 | 13.0 | 0.00 | 0.00 | 0.00 | 64 | 1012.3 |
| 20260903180716 | 84 | 329 | 10.0 | 18.0 | 0.00 | 0.00 | 0.00 | 64 | 1012.3 |
| 20260903180004 | 84 | 333 | 11.0 | 18.0 | 0.00 | 0.00 | 0.00 | 63 | 1012.3 |
| 20260903175505 | 84 | 333 | 11.0 | 18.0 | 0.00 | 0.00 | 0.00 | 63 | 1012.3 |
| 20260903175003 | 84 | 318 | 11.0 | 17.0 | 0.00 | 0.00 | 0.00 | 62 | 1012.3 |
| 20260903174503 | 85 | 309 | 12.0 | 17.0 | 0.00 | 0.00 | 0.00 | 62 | 1012.3 |
| 20260903174003 | 85 | 321 | 12.0 | 18.0 | 0.00 | 0.00 | 0.00 | 62 | 1012.3 |
| 20260903173503 | 85 | 334 | 11.0 | 18.0 | 0.00 | 0.00 | 0.00 | 61 | 1012.3 |
| 20260903173004 | 85 | 334 | 10.0 | 13.0 | 0.00 | 0.00 | 0.00 | 61 | 1012.3 |
| 20260903172503 | 85 | 318 | 10.0 | 12.0 | 0.00 | 0.00 | 0.00 | 60 | 1012.3 |
| 20260903172003 | 86 | 319 | 10.0 | 13.0 | 0.00 | 0.00 | 0.00 | 60 | 1011.3 |
| 20260903171715 | 86 | 320 | 10.0 | 13.0 | 0.00 | 0.00 | 0.00 | 60 | 1011.3 |
| 20260903171004 | 86 | 329 | 11.0 | 16.0 | 0.00 | 0.00 | 0.00 | 60 | 1011.3 |
| 20260903170716 | 86 | 342 | 11.0 | 16.0 | 0.00 | 0.00 | 0.00 | 60 | 1011.3 |
| 20260903170003 | 86 | 335 | 12.0 | 17.0 | 0.00 | 0.00 | 0.00 | 60 | 1011.3 |
| 20260903165503 | 87 | 329 | 12.0 | 17.0 | 0.00 | 0.00 | 0.00 | 59 | 1011.3 |
| 20260903165004 | 87 | 327 | 11.0 | 23.0 | 0.00 | 0.00 | 0.00 | 58 | 1011.3 |
| 20260903164503 | 87 | 322 | 14.0 | 23.0 | 0.00 | 0.00 | 0.00 | 57 | 1011.3 |
| 20260903164003 | 88 | 331 | 15.0 | 26.0 | 0.00 | 0.00 | 0.00 | 57 | 1011.3 |
| 20260903163503 | 88 | 333 | 15.0 | 26.0 | 0.00 | 0.00 | 0.00 | 55 | 1011.3 |
| 20260903163003 | 88 | 327 | 17.0 | 24.0 | 0.00 | 0.00 | 0.00 | 55 | 1011.3 |
| 20260903162503 | 88 | 323 | 17.0 | 24.0 | 0.00 | 0.00 | 0.00 | 55 | 1011.3 |
| 20260903162003 | 88 | 331 | 15.0 | 18.0 | 0.00 | 0.00 | 0.00 | 55 | 1011.3 |
| 20260903161716 | 89 | 322 | 16.0 | 24.0 | 0.00 | 0.00 | 0.00 | 55 | 1011.3 |
| 20260903161214 | 89 | 322 | 15.0 | 24.0 | 0.00 | 0.00 | 0.00 | 54 | 1011.3 |
| 20260903160504 | 89 | 334 | 14.0 | 18.0 | 0.00 | 0.00 | 0.00 | 54 | 1011.3 |
| 20260903160004 | 89 | 325 | 15.0 | 22.0 | 0.00 | 0.00 | 0.00 | 54 | 1011.3 |
| 20260903155504 | 90 | 320 | 16.0 | 22.0 | 0.00 | 0.00 | 0.00 | 54 | 1011.3 |
| 20260903155004 | 90 | 325 | 18.0 | 27.0 | 0.00 | 0.00 | 0.00 | 54 | 1011.3 |
| 20260903154504 | 90 | 323 | 17.0 | 27.0 | 0.00 | 0.00 | 0.00 | 53 | 1011.3 |
| 20260903154004 | 90 | 328 | 13.0 | 21.0 | 0.00 | 0.00 | 0.00 | 54 | 1011.3 |
| 20260903153715 | 90 | 331 | 11.0 | 21.0 | 0.00 | 0.00 | 0.00 | 54 | 1011.3 |
| 20260903153004 | 91 | 315 | 15.0 | 21.0 | 0.00 | 0.00 | 0.00 | 54 | 1011.3 |
| 20260903152716 | 90 | 320 | 15.0 | 23.0 | 0.00 | 0.00 | 0.00 | 54 | 1011.3 |
| 20260903152004 | 91 | 333 | 15.0 | 23.0 | 0.00 | 0.00 | 0.00 | 53 | 1011.3 |
| 20260903151504 | 92 | 327 | 16.0 | 27.0 | 0.00 | 0.00 | 0.00 | 52 | 1011.3 |
| 20260903151004 | 92 | 317 | 13.0 | 27.0 | 0.00 | 0.00 | 0.00 | 51 | 1011.3 |
| 20260903150504 | 92 | 317 | 13.0 | 18.0 | 0.00 | 0.00 | 0.00 | 51 | 1011.3 |
| 20260903150005 | 92 | 316 | 16.0 | 23.0 | 0.00 | 0.00 | 0.00 | 50 | 1011.3 |
| 20260903145504 | 92 | 318 | 15.0 | 23.0 | 0.00 | 0.00 | 0.00 | 50 | 1011.3 |
| 20260903145004 | 92 | 318 | 15.0 | 23.0 | 0.00 | 0.00 | 0.00 | 50 | 1011.3 |
| 20260903144504 | 93 | 312 | 15.0 | 24.0 | 0.00 | 0.00 | 0.00 | 50 | 1011.3 |
| 20260903144004 | 93 | 325 | 18.0 | 30.0 | 0.00 | 0.00 | 0.00 | 50 | 1011.3 |
| 20260903143504 | 93 | 327 | 18.0 | 30.0 | 0.00 | 0.00 | 0.00 | 49 | 1011.3 |
| 20260903143004 | 93 | 315 | 16.0 | 23.0 | 0.00 | 0.00 | 0.00 | 49 | 1011.3 |
| 20260903142504 | 93 | 322 | 17.0 | 24.0 | 0.00 | 0.00 | 0.00 | 47 | 1011.3 |
| 20260903142004 | 94 | 328 | 15.0 | 24.0 | 0.00 | 0.00 | 0.00 | 47 | 1011.3 |
| 20260903141504 | 94 | 325 | 15.0 | 22.0 | 0.00 | 0.00 | 0.00 | 45 | 1011.3 |
| 20260903141004 | 94 | 323 | 16.0 | 22.0 | 0.00 | 0.00 | 0.00 | 47 | 1011.3 |
| 20260903140504 | 94 | 323 | 19.0 | 32.0 | 0.00 | 0.00 | 0.00 | 44 | 1011.3 |
| 20260903140004 | 94 | 319 | 17.0 | 32.0 | 0.00 | 0.00 | 0.00 | 45 | 1011.3 |
| 20260903135503 | 94 | 330 | 14.0 | 21.0 | 0.00 | 0.00 | 0.00 | 44 | 1011.3 |
| 20260903135003 | 94 | 333 | 15.0 | 21.0 | 0.00 | 0.00 | 0.00 | 41 | 1011.3 |
| 20260903134503 | 94 | 326 | 15.0 | 21.0 | 0.00 | 0.00 | 0.00 | 44 | 1011.3 |
| 20260903134003 | 94 | 319 | 16.0 | 21.0 | 0.00 | 0.00 | 0.00 | 43 | 1011.3 |
| 20260903133503 | 94 | 324 | 18.0 | 28.0 | 0.00 | 0.00 | 0.00 | 43 | 1011.3 |
| 20260903133003 | 94 | 328 | 20.0 | 28.0 | 0.00 | 0.00 | 0.00 | 43 | 1011.3 |
| 20260903132717 | 94 | 326 | 20.0 | 26.0 | 0.00 | 0.00 | 0.00 | 43 | 1011.3 |
| 20260903132003 | 94 | 320 | 17.0 | 26.0 | 0.00 | 0.00 | 0.00 | 43 | 1011.3 |
| 20260903131504 | 94 | 313 | 18.0 | 24.0 | 0.00 | 0.00 | 0.00 | 43 | 1011.3 |
| 20260903131216 | 94 | 313 | 20.0 | 24.0 | 0.00 | 0.00 | 0.00 | 43 | 1011.3 |
| 20260903130714 | 94 | 317 | 18.0 | 24.0 | 0.00 | 0.00 | 0.00 | 42 | 1011.3 |
| 20260903130003 | 94 | 316 | 19.0 | 27.0 | 0.00 | 0.00 | 0.00 | 40 | 1011.3 |
| 20260903125505 | 94 | 324 | 16.0 | 24.0 | 0.00 | 0.00 | 0.00 | 40 | 1011.3 |
| 20260903125004 | 95 | 324 | 15.0 | 21.0 | 0.00 | 0.00 | 0.00 | 43 | 1012.3 |
| 20260903124503 | 94 | 327 | 13.0 | 21.0 | 0.00 | 0.00 | 0.00 | 43 | 1012.3 |
| 20260903124003 | 95 | 332 | 15.0 | 24.0 | 0.00 | 0.00 | 0.00 | 43 | 1012.3 |
| 20260903123503 | 95 | 328 | 18.0 | 24.0 | 0.00 | 0.00 | 0.00 | 42 | 1012.3 |
| 20260903123003 | 95 | 328 | 16.0 | 23.0 | 0.00 | 0.00 | 0.00 | 46 | 1012.3 |
| 20260903122504 | 95 | 322 | 15.0 | 22.0 | 0.00 | 0.00 | 0.00 | 44 | 1012.3 |
| 20260903122216 | 95 | 318 | 16.0 | 24.0 | 0.00 | 0.00 | 0.00 | 44 | 1011.3 |
| 20260903121713 | 96 | 311 | 17.0 | 24.0 | 0.00 | 0.00 | 0.00 | 39 | 1011.3 |
| 20260903121004 | 96 | 304 | 17.0 | 26.0 | 0.00 | 0.00 | 0.00 | 41 | 1011.3 |
| 20260903120504 | 96 | 319 | 16.0 | 24.0 | 0.00 | 0.00 | 0.00 | 42 | 1012.3 |
| 20260903120004 | 96 | 317 | 14.0 | 24.0 | 0.00 | 0.00 | 0.00 | 40 | 1012.3 |
| 20260903115504 | 96 | 312 | 13.0 | 18.0 | 0.00 | 0.00 | 0.00 | 42 | 1012.3 |
| 20260903115004 | 96 | 321 | 13.0 | 18.0 | 0.00 | 0.00 | 0.00 | 40 | 1012.3 |
| 20260903114504 | 96 | 329 | 15.0 | 27.0 | 0.00 | 0.00 | 0.00 | 41 | 1012.3 |
| 20260903114005 | 96 | 337 | 16.0 | 27.0 | 0.00 | 0.00 | 0.00 | 39 | 1012.3 |
| 20260903113504 | 96 | 330 | 16.0 | 24.0 | 0.00 | 0.00 | 0.00 | 36 | 1012.3 |
| 20260903113004 | 95 | 307 | 18.0 | 24.0 | 0.00 | 0.00 | 0.00 | 40 | 1012.3 |
| 20260903112504 | 94 | 299 | 14.0 | 24.0 | 0.00 | 0.00 | 0.00 | 42 | 1012.3 |
| 20260903112004 | 93 | 305 | 14.0 | 23.0 | 0.00 | 0.00 | 0.00 | 55 | 1012.3 |
| 20260903111504 | 93 | 306 | 17.0 | 23.0 | 0.00 | 0.00 | 0.00 | 58 | 1012.3 |
| 20260903111004 | 91 | 299 | 19.0 | 24.0 | 0.00 | 0.00 | 0.00 | 58 | 1012.3 |
| 20260903110503 | 91 | 292 | 20.0 | 32.0 | 0.00 | 0.00 | 0.00 | 59 | 1012.3 |
| 20260903110004 | 91 | 283 | 19.0 | 32.0 | 0.00 | 0.00 | 0.00 | 60 | 1012.3 |
| 20260903105716 | 91 | 290 | 18.0 | 24.0 | 0.00 | 0.00 | 0.00 | 60 | 1012.3 |
| 20260903105004 | 90 | 284 | 18.0 | 27.0 | 0.00 | 0.00 | 0.00 | 61 | 1012.3 |
| 20260903104503 | 90 | 283 | 17.0 | 27.0 | 0.00 | 0.00 | 0.00 | 61 | 1012.3 |
| 20260903104004 | 89 | 276 | 19.0 | 27.0 | 0.00 | 0.00 | 0.00 | 63 | 1012.3 |
| 20260903103713 | 89 | 277 | 20.0 | 27.0 | 0.00 | 0.00 | 0.00 | 63 | 1012.3 |
| 20260903103003 | 89 | 281 | 21.0 | 26.0 | 0.00 | 0.00 | 0.00 | 63 | 1012.3 |
| 20260903102504 | 89 | 272 | 20.0 | 26.0 | 0.00 | 0.00 | 0.00 | 64 | 1012.3 |
| 20260903102003 | 89 | 273 | 17.0 | 21.0 | 0.00 | 0.00 | 0.00 | 64 | 1012.3 |
| 20260903101503 | 89 | 294 | 16.0 | 21.0 | 0.00 | 0.00 | 0.00 | 63 | 1012.3 |
| 20260903101003 | 90 | 298 | 16.0 | 21.0 | 0.00 | 0.00 | 0.00 | 63 | 1012.3 |
| 20260903100503 | 89 | 288 | 16.0 | 21.0 | 0.00 | 0.00 | 0.00 | 63 | 1013.3 |
| 20260903100003 | 89 | 281 | 15.0 | 21.0 | 0.00 | 0.00 | 0.00 | 64 | 1013.3 |
| 20260903095503 | 90 | 298 | 15.0 | 20.0 | 0.00 | 0.00 | 0.00 | 64 | 1013.3 |
| 20260903095003 | 89 | 293 | 16.0 | 21.0 | 0.00 | 0.00 | 0.00 | 64 | 1013.3 |
| 20260903094503 | 89 | 278 | 16.0 | 21.0 | 0.00 | 0.00 | 0.00 | 63 | 1013.3 |
| 20260903094003 | 89 | 279 | 17.0 | 23.0 | 0.00 | 0.00 | 0.00 | 64 | 1013.3 |
| 20260903093503 | 89 | 282 | 16.0 | 23.0 | 0.00 | 0.00 | 0.00 | 64 | 1013.3 |
| 20260903093003 | 89 | 273 | 14.0 | 23.0 | 0.00 | 0.00 | 0.00 | 63 | 1013.3 |
| 20260903092503 | 89 | 274 | 11.0 | 14.0 | 0.00 | 0.00 | 0.00 | 62 | 1013.3 |
| 20260903092003 | 89 | 274 | 12.0 | 15.0 | 0.00 | 0.00 | 0.00 | 60 | 1013.3 |
| 20260903091505 | 90 | 272 | 13.0 | 17.0 | 0.00 | 0.00 | 0.00 | 59 | 1013.3 |
| 20260903091003 | 89 | 272 | 13.0 | 17.0 | 0.00 | 0.00 | 0.00 | 58 | 1013.3 |
| 20260903090503 | 89 | 270 | 12.0 | 14.0 | 0.00 | 0.00 | 0.00 | 58 | 1013.3 |
| 20260903090003 | 90 | 278 | 11.0 | 14.0 | 0.00 | 0.00 | 0.00 | 58 | 1013.3 |
| 20260903085503 | 90 | 293 | 8.0 | 13.0 | 0.00 | 0.00 | 0.00 | 55 | 1013.3 |
| 20260903085003 | 91 | 299 | 8.0 | 11.0 | 0.00 | 0.00 | 0.00 | 48 | 1013.3 |
| 20260903084503 | 90 | 295 | 8.0 | 11.0 | 0.00 | 0.00 | 0.00 | 55 | 1013.3 |
| 20260903084004 | 89 | 289 | 7.0 | 11.0 | 0.00 | 0.00 | 0.00 | 55 | 1013.3 |
| 20260903083504 | 90 | 300 | 6.0 | 10.0 | 0.00 | 0.00 | 0.00 | 54 | 1013.3 |
| 20260903083217 | 90 | 311 | 6.0 | 10.0 | 0.00 | 0.00 | 0.00 | 53 | 1013.3 |
| 20260903082504 | 88 | 296 | 6.0 | 12.0 | 0.00 | 0.00 | 0.00 | 57 | 1013.3 |
| 20260903082004 | 88 | 280 | 8.0 | 12.0 | 0.00 | 0.00 | 0.00 | 58 | 1013.3 |
| 20260903081504 | 88 | 293 | 8.0 | 12.0 | 0.00 | 0.00 | 0.00 | 56 | 1013.3 |
| 20260903081004 | 87 | 292 | 8.0 | 12.0 | 0.00 | 0.00 | 0.00 | 58 | 1013.3 |
| 20260903080504 | 87 | 296 | 7.0 | 12.0 | 0.00 | 0.00 | 0.00 | 58 | 1013.3 |
| 20260903080004 | 87 | 298 | 7.0 | 11.0 | 0.00 | 0.00 | 0.00 | 58 | 1013.3 |
| 20260903075504 | 86 | 284 | 7.0 | 12.0 | 0.00 | 0.00 | 0.00 | 57 | 1013.3 |
| 20260903075004 | 86 | 292 | 6.0 | 12.0 | 0.00 | 0.00 | 0.00 | 59 | 1013.3 |
| 20260903074504 | 86 | 301 | 7.0 | 14.0 | 0.00 | 0.00 | 0.00 | 59 | 1013.3 |
| 20260903074005 | 86 | 307 | 9.0 | 14.0 | 0.00 | 0.00 | 0.00 | 60 | 1013.3 |
| 20260903073504 | 85 | 305 | 9.0 | 14.0 | 0.00 | 0.00 | 0.00 | 61 | 1013.3 |
| 20260903073003 | 85 | 293 | 7.0 | 10.0 | 0.00 | 0.00 | 0.00 | 60 | 1013.3 |
| 20260903072716 | 85 | 304 | 5.0 | 9.0 | 0.00 | 0.00 | 0.00 | 63 | 1013.3 |
| 20260903072004 | 84 | 298 | 7.0 | 11.0 | 0.00 | 0.00 | 0.00 | 66 | 1013.3 |
| 20260903071504 | 84 | 298 | 8.0 | 11.0 | 0.00 | 0.00 | 0.00 | 67 | 1013.3 |
| 20260903071004 | 84 | 299 | 6.0 | 11.0 | 0.00 | 0.00 | 0.00 | 69 | 1013.3 |
| 20260903070718 | 84 | 310 | 7.0 | 10.0 | 0.00 | 0.00 | 0.00 | 69 | 1013.3 |
| 20260903070004 | 83 | 319 | 7.0 | 10.0 | 0.00 | 0.00 | 0.00 | 71 | 1013.3 |
| 20260903065503 | 83 | 321 | 4.0 | 8.0 | 0.00 | 0.00 | 0.00 | 71 | 1013.3 |
| 20260903065004 | 82 | 304 | 4.0 | 6.0 | 0.00 | 0.00 | 0.00 | 72 | 1013.3 |
| 20260903064504 | 80 | 304 | 4.0 | 6.0 | 0.00 | 0.00 | 0.00 | 74 | 1013.3 |
| 20260903064218 | 80 | 306 | 3.0 | 5.0 | 0.00 | 0.00 | 0.00 | 74 | 1013.3 |
| 20260903063503 | 79 | 325 | 3.0 | 5.0 | 0.00 | 0.00 | 0.00 | 74 | 1013.3 |
| 20260903063213 | 79 | 329 | 3.0 | 5.0 | 0.00 | 0.00 | 0.00 | 75 | 1013.3 |
| 20260903062503 | 78 | 321 | 4.0 | 8.0 | 0.00 | 0.00 | 0.00 | 75 | 1013.3 |
| 20260903062003 | 77 | 315 | 4.0 | 8.0 | 0.00 | 0.00 | 0.00 | 76 | 1013.3 |
| 20260903061503 | 76 | 315 | 4.0 | 4.0 | 0.00 | 0.00 | 0.00 | 77 | 1013.3 |
| 20260903061004 | 76 | 319 | 4.0 | 5.0 | 0.00 | 0.00 | 0.00 | 77 | 1013.3 |
| 20260903060713 | 75 | 323 | 4.0 | 5.0 | 0.00 | 0.00 | 0.00 | 77 | 1013.3 |
| 20260903060004 | 74 | 314 | 5.0 | 7.0 | 0.00 | 0.00 | 0.00 | 77 | 1013.3 |
| 20260903055504 | 74 | 321 | 5.0 | 5.0 | 0.00 | 0.00 | 0.00 | 77 | 1013.3 |
| 20260903055004 | 73 | 323 | 4.0 | 6.0 | 0.00 | 0.00 | 0.00 | 78 | 1013.3 |
| 20260903054715 | 73 | 327 | 4.0 | 6.0 | 0.00 | 0.00 | 0.00 | 78 | 1013.3 |